sensor_id;sensor_type;location;lat;lon;timestamp;P1;durP1;ratioP1;P2;durP2;ratioP2
85204;SDS011;75582;47.444;21.396;2024-03-02T00:01:17;28.73;;;15.85;;
85204;SDS011;75582;47.444;21.396;2024-03-02T00:02:44;29.75;;;15.23;;
85204;SDS011;75582;47.444;21.396;2024-03-02T00:04:10;31.38;;;16.27;;
85204;SDS011;75582;47.444;21.396;2024-03-02T00:05:37;28.53;;;16.20;;
85204;SDS011;75582;47.444;21.396;2024-03-02T00:07:03;28.55;;;15.52;;
85204;SDS011;75582;47.444;21.396;2024-03-02T00:08:28;28.33;;;16.15;;
85204;SDS011;75582;47.444;21.396;2024-03-02T00:09:55;29.65;;;16.45;;
85204;SDS011;75582;47.444;21.396;2024-03-02T00:11:20;32.20;;;15.90;;
85204;SDS011;75582;47.444;21.396;2024-03-02T00:12:47;29.95;;;16.65;;
85204;SDS011;75582;47.444;21.396;2024-03-02T00:14:14;33.63;;;16.80;;
85204;SDS011;75582;47.444;21.396;2024-03-02T00:17:17;27.85;;;16.00;;
85204;SDS011;75582;47.444;21.396;2024-03-02T00:18:49;30.85;;;15.95;;
85204;SDS011;75582;47.444;21.396;2024-03-02T00:20:16;30.27;;;16.53;;
85204;SDS011;75582;47.444;21.396;2024-03-02T00:21:44;32.53;;;17.27;;
85204;SDS011;75582;47.444;21.396;2024-03-02T00:23:10;32.25;;;18.23;;
85204;SDS011;75582;47.444;21.396;2024-03-02T00:24:40;33.72;;;18.40;;
85204;SDS011;75582;47.444;21.396;2024-03-02T00:26:06;35.75;;;19.05;;
85204;SDS011;75582;47.444;21.396;2024-03-02T00:27:31;35.72;;;17.75;;
85204;SDS011;75582;47.444;21.396;2024-03-02T00:28:58;32.65;;;17.15;;
85204;SDS011;75582;47.444;21.396;2024-03-02T00:30:39;33.90;;;17.98;;
85204;SDS011;75582;47.444;21.396;2024-03-02T00:32:15;36.42;;;18.27;;
85204;SDS011;75582;47.444;21.396;2024-03-02T00:33:41;30.20;;;16.77;;
85204;SDS011;75582;47.444;21.396;2024-03-02T00:35:08;31.17;;;17.27;;
85204;SDS011;75582;47.444;21.396;2024-03-02T00:36:36;30.25;;;16.55;;
85204;SDS011;75582;47.444;21.396;2024-03-02T00:38:07;33.58;;;17.60;;
85204;SDS011;75582;47.444;21.396;2024-03-02T00:39:40;31.48;;;16.77;;
85204;SDS011;75582;47.444;21.396;2024-03-02T00:41:07;32.45;;;17.05;;
85204;SDS011;75582;47.444;21.396;2024-03-02T00:42:33;30.92;;;17.00;;
85204;SDS011;75582;47.444;21.396;2024-03-02T00:45:28;28.17;;;17.23;;
85204;SDS011;75582;47.444;21.396;2024-03-02T00:46:54;31.83;;;17.25;;
85204;SDS011;75582;47.444;21.396;2024-03-02T00:48:20;31.02;;;17.13;;
85204;SDS011;75582;47.444;21.396;2024-03-02T00:49:47;32.57;;;17.63;;
85204;SDS011;75582;47.444;21.396;2024-03-02T00:51:13;36.22;;;18.38;;
85204;SDS011;75582;47.444;21.396;2024-03-02T00:52:40;29.33;;;17.15;;
85204;SDS011;75582;47.444;21.396;2024-03-02T00:54:07;33.97;;;16.88;;
85204;SDS011;75582;47.444;21.396;2024-03-02T00:55:35;32.58;;;17.98;;
85204;SDS011;75582;47.444;21.396;2024-03-02T00:57:03;34.80;;;16.48;;
85204;SDS011;75582;47.444;21.396;2024-03-02T00:58:29;36.30;;;17.92;;
85204;SDS011;75582;47.444;21.396;2024-03-02T00:59:55;36.58;;;18.67;;
85204;SDS011;75582;47.444;21.396;2024-03-02T01:01:22;31.27;;;17.65;;
85204;SDS011;75582;47.444;21.396;2024-03-02T01:02:48;34.17;;;17.42;;
85204;SDS011;75582;47.444;21.396;2024-03-02T01:04:15;31.57;;;18.20;;
85204;SDS011;75582;47.444;21.396;2024-03-02T01:05:42;30.10;;;17.38;;
85204;SDS011;75582;47.444;21.396;2024-03-02T01:07:08;30.10;;;15.88;;
85204;SDS011;75582;47.444;21.396;2024-03-02T01:08:35;31.33;;;17.83;;
85204;SDS011;75582;47.444;21.396;2024-03-02T01:10:00;31.40;;;17.65;;
85204;SDS011;75582;47.444;21.396;2024-03-02T01:11:27;32.22;;;15.80;;
85204;SDS011;75582;47.444;21.396;2024-03-02T01:12:52;33.67;;;17.45;;
85204;SDS011;75582;47.444;21.396;2024-03-02T01:14:18;33.03;;;17.23;;
85204;SDS011;75582;47.444;21.396;2024-03-02T01:15:44;27.40;;;16.17;;
85204;SDS011;75582;47.444;21.396;2024-03-02T01:17:11;29.65;;;16.63;;
85204;SDS011;75582;47.444;21.396;2024-03-02T01:18:36;32.30;;;17.60;;
85204;SDS011;75582;47.444;21.396;2024-03-02T01:20:03;34.92;;;17.15;;
85204;SDS011;75582;47.444;21.396;2024-03-02T01:21:29;33.63;;;17.17;;
85204;SDS011;75582;47.444;21.396;2024-03-02T01:22:56;31.10;;;17.60;;
85204;SDS011;75582;47.444;21.396;2024-03-02T01:24:21;41.10;;;18.67;;
85204;SDS011;75582;47.444;21.396;2024-03-02T01:25:47;27.77;;;17.25;;
85204;SDS011;75582;47.444;21.396;2024-03-02T01:27:14;35.42;;;17.42;;
85204;SDS011;75582;47.444;21.396;2024-03-02T01:28:39;32.55;;;17.17;;
85204;SDS011;75582;47.444;21.396;2024-03-02T01:30:06;31.38;;;16.40;;
85204;SDS011;75582;47.444;21.396;2024-03-02T01:31:33;35.30;;;17.27;;
85204;SDS011;75582;47.444;21.396;2024-03-02T01:32:59;36.03;;;18.37;;
85204;SDS011;75582;47.444;21.396;2024-03-02T01:34:26;32.33;;;16.77;;
85204;SDS011;75582;47.444;21.396;2024-03-02T01:35:51;32.38;;;17.30;;
85204;SDS011;75582;47.444;21.396;2024-03-02T01:37:18;33.30;;;17.45;;
85204;SDS011;75582;47.444;21.396;2024-03-02T01:38:50;36.55;;;19.02;;
85204;SDS011;75582;47.444;21.396;2024-03-02T01:40:16;32.33;;;17.58;;
85204;SDS011;75582;47.444;21.396;2024-03-02T01:41:41;37.30;;;18.02;;
85204;SDS011;75582;47.444;21.396;2024-03-02T01:43:07;33.78;;;18.60;;
85204;SDS011;75582;47.444;21.396;2024-03-02T01:44:34;34.58;;;17.65;;
85204;SDS011;75582;47.444;21.396;2024-03-02T01:46:00;33.67;;;17.50;;
85204;SDS011;75582;47.444;21.396;2024-03-02T01:47:26;30.40;;;17.37;;
85204;SDS011;75582;47.444;21.396;2024-03-02T01:48:51;30.45;;;17.25;;
85204;SDS011;75582;47.444;21.396;2024-03-02T01:50:27;33.20;;;16.98;;
85204;SDS011;75582;47.444;21.396;2024-03-02T01:51:54;33.40;;;17.10;;
85204;SDS011;75582;47.444;21.396;2024-03-02T01:53:19;33.15;;;17.23;;
85204;SDS011;75582;47.444;21.396;2024-03-02T01:54:45;32.90;;;16.85;;
85204;SDS011;75582;47.444;21.396;2024-03-02T01:56:12;30.02;;;17.10;;
85204;SDS011;75582;47.444;21.396;2024-03-02T01:57:37;32.05;;;17.55;;
85204;SDS011;75582;47.444;21.396;2024-03-02T01:59:04;32.55;;;16.90;;
85204;SDS011;75582;47.444;21.396;2024-03-02T02:00:29;29.85;;;17.13;;
85204;SDS011;75582;47.444;21.396;2024-03-02T02:01:56;35.13;;;17.40;;
85204;SDS011;75582;47.444;21.396;2024-03-02T02:03:21;32.90;;;17.48;;
85204;SDS011;75582;47.444;21.396;2024-03-02T02:04:47;35.63;;;18.02;;
85204;SDS011;75582;47.444;21.396;2024-03-02T02:06:13;33.28;;;17.88;;
85204;SDS011;75582;47.444;21.396;2024-03-02T02:07:43;34.85;;;18.05;;
85204;SDS011;75582;47.444;21.396;2024-03-02T02:09:08;35.75;;;16.95;;
85204;SDS011;75582;47.444;21.396;2024-03-02T02:10:34;30.67;;;16.83;;
85204;SDS011;75582;47.444;21.396;2024-03-02T02:12:00;32.97;;;17.63;;
85204;SDS011;75582;47.444;21.396;2024-03-02T02:13:27;32.70;;;17.45;;
85204;SDS011;75582;47.444;21.396;2024-03-02T02:14:54;29.70;;;17.27;;
85204;SDS011;75582;47.444;21.396;2024-03-02T02:16:19;32.30;;;18.23;;
85204;SDS011;75582;47.444;21.396;2024-03-02T02:17:45;31.13;;;16.67;;
85204;SDS011;75582;47.444;21.396;2024-03-02T02:19:11;29.70;;;16.40;;
85204;SDS011;75582;47.444;21.396;2024-03-02T02:20:37;33.72;;;17.75;;
85204;SDS011;75582;47.444;21.396;2024-03-02T02:22:03;30.92;;;16.35;;
85204;SDS011;75582;47.444;21.396;2024-03-02T02:23:30;28.52;;;17.08;;
85204;SDS011;75582;47.444;21.396;2024-03-02T02:24:55;30.30;;;16.40;;
85204;SDS011;75582;47.444;21.396;2024-03-02T02:26:21;32.42;;;16.10;;
85204;SDS011;75582;47.444;21.396;2024-03-02T02:27:47;29.27;;;16.63;;
85204;SDS011;75582;47.444;21.396;2024-03-02T02:29:14;30.55;;;16.05;;
85204;SDS011;75582;47.444;21.396;2024-03-02T02:30:39;28.97;;;16.47;;
85204;SDS011;75582;47.444;21.396;2024-03-02T02:32:06;33.63;;;17.88;;
85204;SDS011;75582;47.444;21.396;2024-03-02T02:33:31;32.85;;;16.67;;
85204;SDS011;75582;47.444;21.396;2024-03-02T02:34:58;31.92;;;16.30;;
85204;SDS011;75582;47.444;21.396;2024-03-02T02:36:25;33.70;;;17.33;;
85204;SDS011;75582;47.444;21.396;2024-03-02T02:37:50;28.75;;;15.82;;
85204;SDS011;75582;47.444;21.396;2024-03-02T02:39:32;30.58;;;16.77;;
85204;SDS011;75582;47.444;21.396;2024-03-02T02:40:57;28.88;;;16.45;;
85204;SDS011;75582;47.444;21.396;2024-03-02T02:42:23;28.20;;;16.02;;
85204;SDS011;75582;47.444;21.396;2024-03-02T02:43:49;34.28;;;16.92;;
85204;SDS011;75582;47.444;21.396;2024-03-02T02:45:15;29.93;;;17.87;;
85204;SDS011;75582;47.444;21.396;2024-03-02T02:46:42;28.58;;;15.38;;
85204;SDS011;75582;47.444;21.396;2024-03-02T02:48:07;28.70;;;16.65;;
85204;SDS011;75582;47.444;21.396;2024-03-02T02:49:34;32.92;;;17.77;;
85204;SDS011;75582;47.444;21.396;2024-03-02T02:50:59;31.60;;;17.23;;
85204;SDS011;75582;47.444;21.396;2024-03-02T02:52:25;31.92;;;16.45;;
85204;SDS011;75582;47.444;21.396;2024-03-02T02:53:56;30.52;;;16.52;;
85204;SDS011;75582;47.444;21.396;2024-03-02T02:55:22;35.78;;;17.00;;
85204;SDS011;75582;47.444;21.396;2024-03-02T02:56:48;32.05;;;17.02;;
85204;SDS011;75582;47.444;21.396;2024-03-02T02:58:14;33.40;;;16.15;;
85204;SDS011;75582;47.444;21.396;2024-03-02T02:59:39;33.23;;;16.67;;
85204;SDS011;75582;47.444;21.396;2024-03-02T03:01:05;26.10;;;15.48;;
85204;SDS011;75582;47.444;21.396;2024-03-02T03:02:31;27.15;;;15.32;;
85204;SDS011;75582;47.444;21.396;2024-03-02T03:03:58;32.10;;;16.20;;
85204;SDS011;75582;47.444;21.396;2024-03-02T03:05:23;26.50;;;14.88;;
85204;SDS011;75582;47.444;21.396;2024-03-02T03:06:49;31.30;;;17.02;;
85204;SDS011;75582;47.444;21.396;2024-03-02T03:08:15;29.23;;;16.75;;
85204;SDS011;75582;47.444;21.396;2024-03-02T03:09:41;30.98;;;16.13;;
85204;SDS011;75582;47.444;21.396;2024-03-02T03:11:08;30.63;;;15.52;;
85204;SDS011;75582;47.444;21.396;2024-03-02T03:12:34;27.38;;;16.55;;
85204;SDS011;75582;47.444;21.396;2024-03-02T03:14:01;30.87;;;16.50;;
85204;SDS011;75582;47.444;21.396;2024-03-02T03:15:26;28.17;;;15.07;;
85204;SDS011;75582;47.444;21.396;2024-03-02T03:16:52;28.50;;;16.15;;
85204;SDS011;75582;47.444;21.396;2024-03-02T03:18:18;25.33;;;14.98;;
85204;SDS011;75582;47.444;21.396;2024-03-02T03:19:44;26.10;;;15.32;;
85204;SDS011;75582;47.444;21.396;2024-03-02T03:21:10;29.90;;;15.00;;
85204;SDS011;75582;47.444;21.396;2024-03-02T03:22:39;31.42;;;17.30;;
85204;SDS011;75582;47.444;21.396;2024-03-02T03:24:05;30.17;;;14.98;;
85204;SDS011;75582;47.444;21.396;2024-03-02T03:25:39;30.55;;;15.38;;
85204;SDS011;75582;47.444;21.396;2024-03-02T03:27:05;32.55;;;14.90;;
85204;SDS011;75582;47.444;21.396;2024-03-02T03:28:39;25.43;;;14.70;;
85204;SDS011;75582;47.444;21.396;2024-03-02T03:30:04;35.00;;;15.40;;
85204;SDS011;75582;47.444;21.396;2024-03-02T03:31:32;29.95;;;14.98;;
85204;SDS011;75582;47.444;21.396;2024-03-02T03:32:57;25.92;;;15.93;;
85204;SDS011;75582;47.444;21.396;2024-03-02T03:34:23;27.92;;;16.00;;
85204;SDS011;75582;47.444;21.396;2024-03-02T03:35:49;24.63;;;15.07;;
85204;SDS011;75582;47.444;21.396;2024-03-02T03:37:15;28.05;;;14.93;;
85204;SDS011;75582;47.444;21.396;2024-03-02T03:38:48;30.50;;;15.20;;
85204;SDS011;75582;47.444;21.396;2024-03-02T03:40:13;28.98;;;15.40;;
85204;SDS011;75582;47.444;21.396;2024-03-02T03:41:40;30.05;;;15.32;;
85204;SDS011;75582;47.444;21.396;2024-03-02T03:43:06;28.10;;;15.00;;
85204;SDS011;75582;47.444;21.396;2024-03-02T03:44:32;27.42;;;15.25;;
85204;SDS011;75582;47.444;21.396;2024-03-02T03:46:00;28.20;;;15.60;;
85204;SDS011;75582;47.444;21.396;2024-03-02T03:47:25;29.50;;;14.73;;
85204;SDS011;75582;47.444;21.396;2024-03-02T03:48:51;24.60;;;14.80;;
85204;SDS011;75582;47.444;21.396;2024-03-02T03:50:17;26.80;;;14.15;;
85204;SDS011;75582;47.444;21.396;2024-03-02T03:51:44;26.70;;;14.50;;
85204;SDS011;75582;47.444;21.396;2024-03-02T03:53:09;29.73;;;15.60;;
85204;SDS011;75582;47.444;21.396;2024-03-02T03:54:35;29.55;;;15.70;;
85204;SDS011;75582;47.444;21.396;2024-03-02T03:56:03;28.55;;;15.45;;
85204;SDS011;75582;47.444;21.396;2024-03-02T03:57:30;30.07;;;15.70;;
85204;SDS011;75582;47.444;21.396;2024-03-02T03:58:56;27.38;;;15.73;;
85204;SDS011;75582;47.444;21.396;2024-03-02T04:00:21;28.98;;;15.43;;
85204;SDS011;75582;47.444;21.396;2024-03-02T04:01:47;24.75;;;15.10;;
85204;SDS011;75582;47.444;21.396;2024-03-02T04:03:13;24.23;;;14.68;;
85204;SDS011;75582;47.444;21.396;2024-03-02T04:04:39;25.00;;;15.38;;
85204;SDS011;75582;47.444;21.396;2024-03-02T04:06:09;27.27;;;14.38;;
85204;SDS011;75582;47.444;21.396;2024-03-02T04:07:35;26.10;;;13.95;;
85204;SDS011;75582;47.444;21.396;2024-03-02T04:09:08;25.25;;;14.57;;
85204;SDS011;75582;47.444;21.396;2024-03-02T04:10:33;26.65;;;13.23;;
85204;SDS011;75582;47.444;21.396;2024-03-02T04:11:59;28.47;;;14.30;;
85204;SDS011;75582;47.444;21.396;2024-03-02T04:13:25;22.63;;;13.50;;
85204;SDS011;75582;47.444;21.396;2024-03-02T04:14:51;27.55;;;14.60;;
85204;SDS011;75582;47.444;21.396;2024-03-02T04:16:18;23.60;;;13.70;;
85204;SDS011;75582;47.444;21.396;2024-03-02T04:17:43;25.92;;;13.77;;
85204;SDS011;75582;47.444;21.396;2024-03-02T04:19:10;21.55;;;12.27;;
85204;SDS011;75582;47.444;21.396;2024-03-02T04:20:35;22.85;;;12.27;;
85204;SDS011;75582;47.444;21.396;2024-03-02T04:22:01;22.13;;;12.07;;
85204;SDS011;75582;47.444;21.396;2024-03-02T04:23:27;24.05;;;12.90;;
85204;SDS011;75582;47.444;21.396;2024-03-02T04:24:54;23.02;;;11.55;;
85204;SDS011;75582;47.444;21.396;2024-03-02T04:26:19;21.43;;;11.00;;
85204;SDS011;75582;47.444;21.396;2024-03-02T04:27:47;18.77;;;10.73;;
85204;SDS011;75582;47.444;21.396;2024-03-02T04:29:13;20.38;;;11.02;;
85204;SDS011;75582;47.444;21.396;2024-03-02T04:30:39;18.92;;;11.50;;
85204;SDS011;75582;47.444;21.396;2024-03-02T04:32:05;19.05;;;10.50;;
85204;SDS011;75582;47.444;21.396;2024-03-02T04:33:31;21.48;;;10.80;;
85204;SDS011;75582;47.444;21.396;2024-03-02T04:34:57;17.30;;;11.00;;
85204;SDS011;75582;47.444;21.396;2024-03-02T04:36:24;17.27;;;10.52;;
85204;SDS011;75582;47.444;21.396;2024-03-02T04:37:49;18.65;;;11.52;;
85204;SDS011;75582;47.444;21.396;2024-03-02T04:39:16;17.17;;;10.18;;
85204;SDS011;75582;47.444;21.396;2024-03-02T04:40:48;21.20;;;11.17;;
85204;SDS011;75582;47.444;21.396;2024-03-02T04:42:14;18.17;;;10.40;;
85204;SDS011;75582;47.444;21.396;2024-03-02T04:43:40;27.00;;;13.57;;
85204;SDS011;75582;47.444;21.396;2024-03-02T04:45:06;29.55;;;14.05;;
85204;SDS011;75582;47.444;21.396;2024-03-02T04:46:33;31.98;;;13.13;;
85204;SDS011;75582;47.444;21.396;2024-03-02T04:47:59;27.50;;;12.45;;
85204;SDS011;75582;47.444;21.396;2024-03-02T04:49:25;25.27;;;12.88;;
85204;SDS011;75582;47.444;21.396;2024-03-02T04:50:50;22.50;;;11.80;;
85204;SDS011;75582;47.444;21.396;2024-03-02T04:52:17;21.85;;;11.98;;
85204;SDS011;75582;47.444;21.396;2024-03-02T04:53:42;25.27;;;12.57;;
85204;SDS011;75582;47.444;21.396;2024-03-02T04:55:09;22.37;;;12.07;;
85204;SDS011;75582;47.444;21.396;2024-03-02T04:56:52;22.17;;;11.40;;
85204;SDS011;75582;47.444;21.396;2024-03-02T04:58:18;19.98;;;10.85;;
85204;SDS011;75582;47.444;21.396;2024-03-02T04:59:44;21.73;;;11.40;;
85204;SDS011;75582;47.444;21.396;2024-03-02T05:01:11;22.35;;;11.30;;
85204;SDS011;75582;47.444;21.396;2024-03-02T05:02:37;18.48;;;10.30;;
85204;SDS011;75582;47.444;21.396;2024-03-02T05:04:03;20.50;;;10.93;;
85204;SDS011;75582;47.444;21.396;2024-03-02T05:05:28;22.73;;;11.43;;
85204;SDS011;75582;47.444;21.396;2024-03-02T05:06:54;23.55;;;11.10;;
85204;SDS011;75582;47.444;21.396;2024-03-02T05:08:22;19.35;;;10.93;;
85204;SDS011;75582;47.444;21.396;2024-03-02T05:09:49;22.00;;;12.27;;
85204;SDS011;75582;47.444;21.396;2024-03-02T05:11:14;22.27;;;12.70;;
85204;SDS011;75582;47.444;21.396;2024-03-02T05:13:15;25.45;;;14.32;;
85204;SDS011;75582;47.444;21.396;2024-03-02T05:14:43;25.77;;;13.70;;
85204;SDS011;75582;47.444;21.396;2024-03-02T05:16:09;24.63;;;14.07;;
85204;SDS011;75582;47.444;21.396;2024-03-02T05:17:34;25.40;;;13.35;;
85204;SDS011;75582;47.444;21.396;2024-03-02T05:19:03;26.73;;;13.80;;
85204;SDS011;75582;47.444;21.396;2024-03-02T05:20:31;25.45;;;14.85;;
85204;SDS011;75582;47.444;21.396;2024-03-02T05:21:58;31.20;;;15.75;;
85204;SDS011;75582;47.444;21.396;2024-03-02T05:23:23;30.10;;;16.05;;
85204;SDS011;75582;47.444;21.396;2024-03-02T05:24:49;29.50;;;16.40;;
85204;SDS011;75582;47.444;21.396;2024-03-02T05:26:15;28.77;;;15.50;;
85204;SDS011;75582;47.444;21.396;2024-03-02T05:27:42;26.48;;;15.52;;
85204;SDS011;75582;47.444;21.396;2024-03-02T05:29:07;28.60;;;15.38;;
85204;SDS011;75582;47.444;21.396;2024-03-02T05:30:34;27.73;;;14.63;;
85204;SDS011;75582;47.444;21.396;2024-03-02T05:31:59;27.17;;;14.90;;
85204;SDS011;75582;47.444;21.396;2024-03-02T05:33:26;30.23;;;14.32;;
85204;SDS011;75582;47.444;21.396;2024-03-02T05:34:51;25.17;;;13.45;;
85204;SDS011;75582;47.444;21.396;2024-03-02T05:36:17;19.17;;;12.45;;
85204;SDS011;75582;47.444;21.396;2024-03-02T05:37:43;18.05;;;10.95;;
85204;SDS011;75582;47.444;21.396;2024-03-02T05:39:16;23.47;;;12.57;;
85204;SDS011;75582;47.444;21.396;2024-03-02T05:40:42;21.48;;;10.65;;
85204;SDS011;75582;47.444;21.396;2024-03-02T05:42:07;21.65;;;11.80;;
85204;SDS011;75582;47.444;21.396;2024-03-02T05:43:34;22.08;;;11.55;;
85204;SDS011;75582;47.444;21.396;2024-03-02T05:44:59;23.13;;;11.88;;
85204;SDS011;75582;47.444;21.396;2024-03-02T05:46:25;20.52;;;11.32;;
85204;SDS011;75582;47.444;21.396;2024-03-02T05:47:51;20.83;;;11.45;;
85204;SDS011;75582;47.444;21.396;2024-03-02T05:49:18;22.33;;;12.20;;
85204;SDS011;75582;47.444;21.396;2024-03-02T05:50:43;20.67;;;12.27;;
85204;SDS011;75582;47.444;21.396;2024-03-02T05:52:10;19.55;;;11.90;;
85204;SDS011;75582;47.444;21.396;2024-03-02T05:53:36;30.60;;;16.87;;
85204;SDS011;75582;47.444;21.396;2024-03-02T05:55:03;31.67;;;18.98;;
85204;SDS011;75582;47.444;21.396;2024-03-02T05:56:30;39.20;;;22.10;;
85204;SDS011;75582;47.444;21.396;2024-03-02T05:57:56;50.05;;;28.48;;
85204;SDS011;75582;47.444;21.396;2024-03-02T05:59:42;31.55;;;18.27;;
85204;SDS011;75582;47.444;21.396;2024-03-02T06:01:08;27.90;;;16.98;;
85204;SDS011;75582;47.444;21.396;2024-03-02T06:02:35;34.60;;;18.67;;
85204;SDS011;75582;47.444;21.396;2024-03-02T06:04:00;33.17;;;19.75;;
85204;SDS011;75582;47.444;21.396;2024-03-02T06:05:27;32.53;;;19.27;;
85204;SDS011;75582;47.444;21.396;2024-03-02T06:06:52;26.15;;;15.20;;
85204;SDS011;75582;47.444;21.396;2024-03-02T06:08:19;23.33;;;13.20;;
85204;SDS011;75582;47.444;21.396;2024-03-02T06:09:46;26.05;;;13.90;;
85204;SDS011;75582;47.444;21.396;2024-03-02T06:11:13;25.25;;;15.98;;
85204;SDS011;75582;47.444;21.396;2024-03-02T06:12:40;27.52;;;15.50;;
85204;SDS011;75582;47.444;21.396;2024-03-02T06:14:06;22.67;;;13.60;;
85204;SDS011;75582;47.444;21.396;2024-03-02T06:15:33;22.50;;;13.52;;
85204;SDS011;75582;47.444;21.396;2024-03-02T06:17:00;22.85;;;13.65;;
85204;SDS011;75582;47.444;21.396;2024-03-02T06:18:25;22.85;;;13.57;;
85204;SDS011;75582;47.444;21.396;2024-03-02T06:19:51;25.35;;;16.42;;
85204;SDS011;75582;47.444;21.396;2024-03-02T06:21:17;21.98;;;13.68;;
85204;SDS011;75582;47.444;21.396;2024-03-02T06:22:43;20.23;;;12.93;;
85204;SDS011;75582;47.444;21.396;2024-03-02T06:24:09;22.52;;;14.82;;
85204;SDS011;75582;47.444;21.396;2024-03-02T06:25:35;21.58;;;11.55;;
85204;SDS011;75582;47.444;21.396;2024-03-02T06:27:05;21.13;;;10.88;;
85204;SDS011;75582;47.444;21.396;2024-03-02T06:28:31;17.38;;;11.13;;
85204;SDS011;75582;47.444;21.396;2024-03-02T06:29:57;18.13;;;11.63;;
85204;SDS011;75582;47.444;21.396;2024-03-02T06:31:23;16.83;;;11.05;;
85204;SDS011;75582;47.444;21.396;2024-03-02T06:32:49;17.38;;;10.75;;
85204;SDS011;75582;47.444;21.396;2024-03-02T06:34:15;20.58;;;12.13;;
85204;SDS011;75582;47.444;21.396;2024-03-02T06:35:41;19.50;;;11.30;;
85204;SDS011;75582;47.444;21.396;2024-03-02T06:37:07;16.93;;;10.83;;
85204;SDS011;75582;47.444;21.396;2024-03-02T06:38:34;19.80;;;11.77;;
85204;SDS011;75582;47.444;21.396;2024-03-02T06:40:13;25.30;;;11.48;;
85204;SDS011;75582;47.444;21.396;2024-03-02T06:41:39;17.33;;;9.60;;
85204;SDS011;75582;47.444;21.396;2024-03-02T06:43:04;18.95;;;12.13;;
85204;SDS011;75582;47.444;21.396;2024-03-02T06:44:31;25.75;;;10.60;;
85204;SDS011;75582;47.444;21.396;2024-03-02T06:45:56;19.50;;;10.35;;
85204;SDS011;75582;47.444;21.396;2024-03-02T06:47:21;17.67;;;11.50;;
85204;SDS011;75582;47.444;21.396;2024-03-02T06:48:47;16.25;;;10.25;;
85204;SDS011;75582;47.444;21.396;2024-03-02T06:50:14;17.65;;;10.07;;
85204;SDS011;75582;47.444;21.396;2024-03-02T06:51:39;17.50;;;10.57;;
85204;SDS011;75582;47.444;21.396;2024-03-02T06:53:07;17.00;;;9.50;;
85204;SDS011;75582;47.444;21.396;2024-03-02T06:54:33;14.88;;;9.45;;
85204;SDS011;75582;47.444;21.396;2024-03-02T06:55:59;13.75;;;8.63;;
85204;SDS011;75582;47.444;21.396;2024-03-02T06:57:26;19.65;;;10.07;;
85204;SDS011;75582;47.444;21.396;2024-03-02T06:58:52;15.75;;;8.88;;
85204;SDS011;75582;47.444;21.396;2024-03-02T07:00:18;15.73;;;8.10;;
85204;SDS011;75582;47.444;21.396;2024-03-02T07:01:45;14.27;;;8.60;;
85204;SDS011;75582;47.444;21.396;2024-03-02T07:03:12;14.43;;;7.65;;
85204;SDS011;75582;47.444;21.396;2024-03-02T07:04:39;11.40;;;7.53;;
85204;SDS011;75582;47.444;21.396;2024-03-02T07:06:04;15.00;;;8.43;;
85204;SDS011;75582;47.444;21.396;2024-03-02T07:07:30;13.45;;;8.85;;
85204;SDS011;75582;47.444;21.396;2024-03-02T07:08:57;15.63;;;9.18;;
85204;SDS011;75582;47.444;21.396;2024-03-02T07:10:22;13.48;;;8.90;;
85204;SDS011;75582;47.444;21.396;2024-03-02T07:11:49;14.13;;;9.18;;
85204;SDS011;75582;47.444;21.396;2024-03-02T07:13:15;12.32;;;8.35;;
85204;SDS011;75582;47.444;21.396;2024-03-02T07:14:40;13.60;;;9.00;;
85204;SDS011;75582;47.444;21.396;2024-03-02T07:16:24;13.23;;;8.30;;
85204;SDS011;75582;47.444;21.396;2024-03-02T07:17:55;15.38;;;8.13;;
85204;SDS011;75582;47.444;21.396;2024-03-02T07:19:21;16.98;;;8.35;;
85204;SDS011;75582;47.444;21.396;2024-03-02T07:20:46;16.80;;;9.77;;
85204;SDS011;75582;47.444;21.396;2024-03-02T07:22:15;16.23;;;9.38;;
85204;SDS011;75582;47.444;21.396;2024-03-02T07:23:40;14.95;;;9.38;;
85204;SDS011;75582;47.444;21.396;2024-03-02T07:25:07;17.08;;;10.07;;
85204;SDS011;75582;47.444;21.396;2024-03-02T07:26:32;12.80;;;8.73;;
85204;SDS011;75582;47.444;21.396;2024-03-02T07:27:59;15.02;;;8.63;;
85204;SDS011;75582;47.444;21.396;2024-03-02T07:29:25;17.92;;;9.30;;
85204;SDS011;75582;47.444;21.396;2024-03-02T07:31:00;18.17;;;10.05;;
85204;SDS011;75582;47.444;21.396;2024-03-02T07:32:26;16.83;;;9.18;;
85204;SDS011;75582;47.444;21.396;2024-03-02T07:33:52;17.27;;;8.65;;
85204;SDS011;75582;47.444;21.396;2024-03-02T07:35:18;17.67;;;9.50;;
85204;SDS011;75582;47.444;21.396;2024-03-02T07:36:45;16.88;;;7.97;;
85204;SDS011;75582;47.444;21.396;2024-03-02T07:38:10;14.52;;;8.55;;
85204;SDS011;75582;47.444;21.396;2024-03-02T07:39:37;14.00;;;8.43;;
85204;SDS011;75582;47.444;21.396;2024-03-02T07:41:04;15.48;;;9.68;;
85204;SDS011;75582;47.444;21.396;2024-03-02T07:42:29;14.20;;;8.52;;
85204;SDS011;75582;47.444;21.396;2024-03-02T07:43:55;17.33;;;9.65;;
85204;SDS011;75582;47.444;21.396;2024-03-02T07:45:22;15.85;;;9.35;;
85204;SDS011;75582;47.444;21.396;2024-03-02T07:46:48;14.20;;;8.85;;
85204;SDS011;75582;47.444;21.396;2024-03-02T07:48:16;16.67;;;9.45;;
85204;SDS011;75582;47.444;21.396;2024-03-02T07:49:44;12.97;;;8.13;;
85204;SDS011;75582;47.444;21.396;2024-03-02T07:51:11;14.95;;;8.90;;
85204;SDS011;75582;47.444;21.396;2024-03-02T07:52:36;17.02;;;8.32;;
85204;SDS011;75582;47.444;21.396;2024-03-02T07:54:03;16.17;;;8.32;;
85204;SDS011;75582;47.444;21.396;2024-03-02T07:55:29;15.80;;;9.57;;
85204;SDS011;75582;47.444;21.396;2024-03-02T07:56:55;15.48;;;9.02;;
85204;SDS011;75582;47.444;21.396;2024-03-02T07:58:22;19.83;;;9.50;;
85204;SDS011;75582;47.444;21.396;2024-03-02T07:59:47;15.13;;;9.38;;
85204;SDS011;75582;47.444;21.396;2024-03-02T08:01:15;14.27;;;9.10;;
85204;SDS011;75582;47.444;21.396;2024-03-02T08:02:40;17.90;;;9.50;;
85204;SDS011;75582;47.444;21.396;2024-03-02T08:04:07;17.20;;;9.10;;
85204;SDS011;75582;47.444;21.396;2024-03-02T08:05:33;16.27;;;9.32;;
85204;SDS011;75582;47.444;21.396;2024-03-02T08:07:00;14.95;;;9.45;;
85204;SDS011;75582;47.444;21.396;2024-03-02T08:08:25;16.88;;;10.40;;
85204;SDS011;75582;47.444;21.396;2024-03-02T08:09:52;21.98;;;10.50;;
85204;SDS011;75582;47.444;21.396;2024-03-02T08:11:17;18.02;;;10.07;;
85204;SDS011;75582;47.444;21.396;2024-03-02T08:12:44;18.90;;;10.95;;
85204;SDS011;75582;47.444;21.396;2024-03-02T08:14:09;21.02;;;11.20;;
85204;SDS011;75582;47.444;21.396;2024-03-02T08:15:35;21.92;;;12.15;;
85204;SDS011;75582;47.444;21.396;2024-03-02T08:17:02;24.08;;;12.88;;
85204;SDS011;75582;47.444;21.396;2024-03-02T08:18:27;23.23;;;12.60;;
85204;SDS011;75582;47.444;21.396;2024-03-02T08:19:53;22.95;;;12.07;;
85204;SDS011;75582;47.444;21.396;2024-03-02T08:21:20;19.85;;;11.30;;
85204;SDS011;75582;47.444;21.396;2024-03-02T08:22:45;20.45;;;11.68;;
85204;SDS011;75582;47.444;21.396;2024-03-02T08:24:12;20.70;;;11.77;;
85204;SDS011;75582;47.444;21.396;2024-03-02T08:25:38;21.27;;;12.15;;